createdAt,value
2019-03-06T00:00:39.028Z,75.68
2019-03-06T00:01:21.159Z,75.53
2019-03-06T00:01:56.747Z,75.53
2019-03-06T00:02:32.140Z,75.67
2019-03-06T00:03:07.894Z,75.77
2019-03-06T00:03:43.570Z,75.84
2019-03-06T00:04:19.233Z,75.93
2019-03-06T00:04:54.681Z,75.82
2019-03-06T00:05:30.063Z,75.59
2019-03-06T00:06:05.447Z,75.38
2019-03-06T00:06:41.174Z,75.41
2019-03-06T00:07:16.583Z,75.14
2019-03-06T00:07:52.277Z,75.44
2019-03-06T00:08:28.225Z,75.40
2019-03-06T00:09:05.543Z,75.43
2019-03-06T00:09:41.028Z,75.53
2019-03-06T00:10:27.634Z,75.41
2019-03-06T00:11:03.293Z,75.30
2019-03-06T00:11:39.241Z,75.46
2019-03-06T00:12:14.640Z,75.55
2019-03-06T00:12:50.048Z,75.14
2019-03-06T00:13:25.537Z,75.15
2019-03-06T00:14:01.173Z,75.26
2019-03-06T00:14:36.562Z,75.30
2019-03-06T00:15:11.950Z,75.45
2019-03-06T00:15:47.312Z,75.18
2019-03-06T00:16:22.931Z,75.27
2019-03-06T00:16:58.550Z,75.27
2019-03-06T00:17:33.960Z,75.24
2019-03-06T00:18:09.352Z,75.69
2019-03-06T00:18:44.995Z,75.69
2019-03-06T00:19:20.454Z,75.63
2019-03-06T00:19:56.195Z,75.63
2019-03-06T00:20:31.564Z,74.96
2019-03-06T00:21:07.202Z,74.96
2019-03-06T00:21:42.631Z,75.28
2019-03-06T00:22:17.999Z,75.61
2019-03-06T00:22:53.399Z,75.61
2019-03-06T00:23:28.764Z,75.36
2019-03-06T00:24:04.336Z,75.38
2019-03-06T00:24:39.704Z,75.21
2019-03-06T00:25:15.751Z,75.35
2019-03-06T00:25:51.379Z,75.35
2019-03-06T00:26:26.751Z,74.93
2019-03-06T00:27:02.136Z,75.10
2019-03-06T00:27:37.538Z,75.18
2019-03-06T00:28:12.930Z,75.26
2019-03-06T00:28:48.884Z,75.25
2019-03-06T00:29:24.293Z,75.35
2019-03-06T00:29:59.663Z,75.38
2019-03-06T00:30:35.275Z,75.49
2019-03-06T00:31:11.031Z,75.43
2019-03-06T00:31:46.665Z,75.40
2019-03-06T00:32:22.289Z,75.19
2019-03-06T00:32:58.261Z,75.19
2019-03-06T00:33:33.623Z,75.29
2019-03-06T00:34:09.548Z,75.44
2019-03-06T00:34:44.927Z,75.62
2019-03-06T00:35:23.473Z,75.82
2019-03-06T00:35:59.147Z,75.89
2019-03-06T00:36:35.042Z,76.13
2019-03-06T00:37:10.447Z,76.26
2019-03-06T00:37:45.835Z,76.41
2019-03-06T00:38:21.202Z,76.50
2019-03-06T00:38:56.726Z,76.63
2019-03-06T00:39:39.614Z,76.89
2019-03-06T00:40:23.477Z,77.05
2019-03-06T00:41:12.706Z,77.01
2019-03-06T00:41:50.693Z,77.10
2019-03-06T00:42:26.403Z,77.22
2019-03-06T00:43:02.065Z,76.98
2019-03-06T00:43:38.446Z,76.66
2019-03-06T00:44:14.484Z,76.47
2019-03-06T00:44:49.859Z,76.47
2019-03-06T00:45:25.251Z,76.48
2019-03-06T00:46:00.880Z,76.21
2019-03-06T00:46:36.446Z,76.03
2019-03-06T00:47:12.190Z,76.03
2019-03-06T00:47:47.949Z,76.22
2019-03-06T00:48:23.564Z,75.97
2019-03-06T00:48:58.969Z,75.65
2019-03-06T00:49:36.169Z,75.67
2019-03-06T00:50:12.295Z,75.79
2019-03-06T00:50:47.668Z,75.95
2019-03-06T00:51:23.082Z,75.86
2019-03-06T00:51:58.723Z,75.83
2019-03-06T00:52:34.503Z,75.76
2019-03-06T00:53:09.948Z,75.96
2019-03-06T00:53:45.338Z,76.15
2019-03-06T00:54:20.720Z,76.26
2019-03-06T00:54:56.387Z,76.20
2019-03-06T00:55:32.075Z,76.28
2019-03-06T00:56:07.562Z,76.44
2019-03-06T00:56:43.232Z,76.27
2019-03-06T00:57:19.324Z,76.20
2019-03-06T00:57:55.051Z,76.20
2019-03-06T00:58:30.495Z,76.03
2019-03-06T00:59:06.164Z,75.81
2019-03-06T00:59:41.697Z,75.94
2019-03-06T01:00:19.005Z,75.94
2019-03-06T01:00:55.428Z,75.41
2019-03-06T01:01:31.058Z,75.38
2019-03-06T01:02:06.747Z,75.18
2019-03-06T01:02:42.241Z,75.18
2019-03-06T01:03:17.983Z,75.21
2019-03-06T01:03:53.476Z,75.45
2019-03-06T01:04:29.160Z,75.64
2019-03-06T01:05:05.042Z,75.62
2019-03-06T01:05:40.665Z,75.63
2019-03-06T01:06:16.452Z,75.37
2019-03-06T01:06:51.830Z,75.16
2019-03-06T01:07:27.764Z,75.16
2019-03-06T01:08:03.370Z,75.21
2019-03-06T01:08:38.773Z,75.52
2019-03-06T01:09:14.435Z,75.73
2019-03-06T01:09:50.128Z,75.88
2019-03-06T01:10:25.789Z,76.09
2019-03-06T01:11:01.269Z,76.15
2019-03-06T01:11:36.925Z,76.06
2019-03-06T01:12:12.378Z,75.96
2019-03-06T01:12:47.898Z,76.15
2019-03-06T01:13:23.344Z,76.02
2019-03-06T01:13:58.753Z,76.16
2019-03-06T01:14:34.387Z,76.18
2019-03-06T01:15:10.072Z,76.20
2019-03-06T01:15:45.571Z,76.04
2019-03-06T01:16:20.978Z,76.04
2019-03-06T01:16:56.589Z,76.11
2019-03-06T01:17:32.533Z,75.69
2019-03-06T01:18:08.224Z,75.69
2019-03-06T01:18:43.654Z,75.63
2019-03-06T01:19:19.239Z,75.70
2019-03-06T01:19:54.944Z,75.79
2019-03-06T01:20:30.478Z,75.94
2019-03-06T01:21:05.877Z,75.97
2019-03-06T01:21:41.579Z,76.00
2019-03-06T01:22:16.995Z,75.55
2019-03-06T01:22:52.473Z,75.47
2019-03-06T01:23:27.868Z,75.85
2019-03-06T01:24:03.245Z,75.85
2019-03-06T01:24:38.621Z,75.69
2019-03-06T01:25:14.218Z,75.84
2019-03-06T01:25:49.636Z,75.61
2019-03-06T01:26:25.260Z,76.24
2019-03-06T01:27:00.655Z,76.24
2019-03-06T01:27:36.326Z,75.92
2019-03-06T01:28:12.068Z,75.90
2019-03-06T01:28:47.788Z,76.14
2019-03-06T01:29:23.209Z,75.97
2019-03-06T01:29:58.830Z,75.93
2019-03-06T01:30:34.483Z,75.93
2019-03-06T01:31:10.200Z,76.25
2019-03-06T01:31:45.796Z,76.40
2019-03-06T01:32:21.515Z,76.63
2019-03-06T01:33:02.111Z,76.83
2019-03-06T01:33:56.478Z,76.90
2019-03-06T01:34:51.127Z,76.90
2019-03-06T01:35:48.861Z,77.40
2019-03-06T01:36:46.123Z,77.69
2019-03-06T01:37:32.312Z,77.88
2019-03-06T01:38:31.160Z,77.96
2019-03-06T01:39:41.622Z,78.37
2019-03-06T01:40:28.552Z,78.37
2019-03-06T01:41:23.176Z,78.28
2019-03-06T01:42:17.546Z,78.32
2019-03-06T01:43:08.244Z,78.32
2019-03-06T01:43:51.386Z,77.96
2019-03-06T01:44:51.835Z,77.92
2019-03-06T01:45:27.246Z,78.07
2019-03-06T01:46:02.641Z,78.58
2019-03-06T01:46:38.041Z,78.83
2019-03-06T01:47:13.737Z,78.83
2019-03-06T01:47:49.116Z,78.90
2019-03-06T01:48:24.871Z,79.14
2019-03-06T01:49:00.237Z,79.19
2019-03-06T01:49:35.876Z,79.19
2019-03-06T01:50:14.146Z,79.44
2019-03-06T01:50:49.809Z,79.79
2019-03-06T01:51:25.383Z,79.82
2019-03-06T01:52:00.933Z,79.82
2019-03-06T01:52:36.556Z,79.93
2019-03-06T01:53:11.987Z,79.82
2019-03-06T01:53:47.977Z,79.82
2019-03-06T01:54:23.368Z,79.84
2019-03-06T01:54:59.277Z,79.72
2019-03-06T01:55:34.939Z,79.58
2019-03-06T01:56:11.069Z,79.60
2019-03-06T01:56:47.181Z,79.58
2019-03-06T01:57:22.543Z,79.56
2019-03-06T01:57:58.202Z,79.53
2019-03-06T01:58:33.593Z,79.53
2019-03-06T01:59:09.199Z,79.57
2019-03-06T01:59:44.868Z,79.59
2019-03-06T02:00:20.340Z,79.66
2019-03-06T02:00:55.739Z,79.88
2019-03-06T02:01:31.121Z,79.88
2019-03-06T02:02:06.498Z,79.90
2019-03-06T02:02:41.884Z,79.98
2019-03-06T02:03:17.718Z,80.09
2019-03-06T02:03:53.422Z,79.93
2019-03-06T02:04:29.052Z,79.93
2019-03-06T02:05:04.767Z,79.75
2019-03-06T02:05:40.430Z,79.74
2019-03-06T02:06:16.215Z,79.80
2019-03-06T02:06:51.860Z,79.86
2019-03-06T02:07:27.529Z,79.94
2019-03-06T02:08:03.180Z,80.13
2019-03-06T02:08:38.592Z,80.23
2019-03-06T02:09:15.239Z,80.23
2019-03-06T02:09:50.632Z,80.25
2019-03-06T02:10:26.468Z,80.21
2019-03-06T02:11:02.510Z,80.14
2019-03-06T02:11:38.218Z,79.85
2019-03-06T02:12:13.931Z,79.85
2019-03-06T02:12:49.337Z,79.90
2019-03-06T02:13:24.926Z,79.86
2019-03-06T02:14:00.335Z,79.85
2019-03-06T02:14:36.155Z,79.84
2019-03-06T02:15:12.676Z,79.84
2019-03-06T02:15:48.095Z,79.84
2019-03-06T02:16:23.473Z,80.04
2019-03-06T02:16:58.858Z,80.04
2019-03-06T02:17:34.249Z,80.08
2019-03-06T02:18:09.661Z,80.16
2019-03-06T02:18:45.709Z,80.21
2019-03-06T02:19:21.091Z,80.37
2019-03-06T02:19:57.043Z,80.37
2019-03-06T02:20:32.460Z,80.51
2019-03-06T02:21:07.905Z,80.51
2019-03-06T02:21:43.698Z,80.49
2019-03-06T02:22:19.106Z,80.53
2019-03-06T02:22:54.732Z,80.19
2019-03-06T02:23:30.106Z,80.19
2019-03-06T02:24:05.537Z,80.65
2019-03-06T02:24:41.200Z,80.64
2019-03-06T02:25:16.662Z,80.59
2019-03-06T02:25:52.497Z,80.40
2019-03-06T02:26:28.145Z,80.40
2019-03-06T02:27:03.523Z,80.44
2019-03-06T02:27:38.953Z,80.39
2019-03-06T02:28:14.352Z,80.36
2019-03-06T02:28:49.808Z,80.36
2019-03-06T02:29:25.459Z,80.41
2019-03-06T02:30:00.911Z,80.41
2019-03-06T02:30:36.414Z,80.39
2019-03-06T02:31:12.176Z,80.45
2019-03-06T02:31:47.823Z,80.45
2019-03-06T02:32:23.214Z,80.16
2019-03-06T02:32:58.601Z,79.99
2019-03-06T02:33:33.984Z,79.74
2019-03-06T02:34:09.564Z,79.74
2019-03-06T02:34:44.964Z,79.89
2019-03-06T02:35:21.570Z,79.87
2019-03-06T02:35:57.001Z,79.89
2019-03-06T02:36:32.373Z,79.98
2019-03-06T02:37:08.060Z,80.04
2019-03-06T02:37:43.892Z,80.04
2019-03-06T02:38:19.469Z,79.80
2019-03-06T02:38:55.137Z,79.80
2019-03-06T02:39:30.554Z,80.52
2019-03-06T02:40:06.074Z,80.52
2019-03-06T02:40:41.915Z,80.09
2019-03-06T02:41:17.416Z,80.17
2019-03-06T02:41:52.794Z,80.27
2019-03-06T02:42:28.179Z,80.31
2019-03-06T02:43:03.872Z,80.33
2019-03-06T02:43:39.264Z,80.36
2019-03-06T02:44:14.681Z,80.36
2019-03-06T02:44:50.084Z,80.36
2019-03-06T02:45:25.492Z,80.32
2019-03-06T02:46:00.887Z,80.30
2019-03-06T02:46:36.276Z,80.34
2019-03-06T02:47:12.027Z,80.41
2019-03-06T02:47:47.727Z,80.45
2019-03-06T02:48:23.087Z,80.39
2019-03-06T02:48:58.457Z,80.45
2019-03-06T02:49:33.874Z,80.45
2019-03-06T02:50:10.692Z,80.31
2019-03-06T02:50:46.590Z,80.38
2019-03-06T02:51:22.065Z,80.38
2019-03-06T02:51:57.545Z,80.41
2019-03-06T02:52:32.952Z,80.26
2019-03-06T02:53:08.335Z,80.26
2019-03-06T02:53:44.119Z,80.52
2019-03-06T02:54:19.555Z,80.57
2019-03-06T02:54:55.224Z,80.77
2019-03-06T02:55:30.911Z,80.77
2019-03-06T02:56:06.380Z,80.70
2019-03-06T02:56:41.810Z,80.75
2019-03-06T02:57:17.465Z,80.82
2019-03-06T02:57:57.963Z,80.90
2019-03-06T02:58:44.262Z,80.93
2019-03-06T02:59:41.586Z,81.02
2019-03-06T03:00:40.954Z,81.03
2019-03-06T03:01:30.018Z,81.08
2019-03-06T03:02:23.484Z,81.09
2019-03-06T03:03:08.400Z,81.12
2019-03-06T03:04:06.790Z,81.20
2019-03-06T03:04:48.110Z,81.30
2019-03-06T03:05:54.399Z,81.40
2019-03-06T03:06:39.652Z,81.44
2019-03-06T03:07:17.319Z,81.59
2019-03-06T03:07:52.714Z,81.66
2019-03-06T03:08:28.426Z,81.63
2019-03-06T03:09:05.248Z,81.62
2019-03-06T03:09:40.948Z,81.66
2019-03-06T03:10:16.378Z,81.67
2019-03-06T03:10:51.746Z,81.70
2019-03-06T03:11:27.113Z,81.76
2019-03-06T03:12:02.502Z,81.81
2019-03-06T03:12:38.130Z,81.85
2019-03-06T03:13:13.551Z,81.89
2019-03-06T03:13:48.940Z,81.92
2019-03-06T03:14:24.352Z,81.95
2019-03-06T03:14:59.749Z,82.07
2019-03-06T03:15:35.118Z,82.11
2019-03-06T03:16:10.514Z,82.07
2019-03-06T03:16:46.339Z,82.03
2019-03-06T03:17:21.714Z,81.89
2019-03-06T03:17:57.438Z,81.89
2019-03-06T03:18:33.092Z,81.94
2019-03-06T03:19:08.502Z,81.94
2019-03-06T03:19:43.929Z,81.94
2019-03-06T03:20:19.314Z,81.87
2019-03-06T03:20:54.678Z,81.81
2019-03-06T03:21:30.079Z,81.81
2019-03-06T03:22:05.473Z,81.87
2019-03-06T03:22:41.139Z,81.85
2019-03-06T03:23:16.877Z,81.82
2019-03-06T03:23:52.492Z,81.79
2019-03-06T03:24:27.932Z,81.75
2019-03-06T03:25:03.339Z,81.70
2019-03-06T03:25:38.732Z,81.68
2019-03-06T03:26:14.163Z,81.69
2019-03-06T03:26:49.548Z,81.73
2019-03-06T03:27:24.966Z,81.74
2019-03-06T03:28:00.351Z,81.80
2019-03-06T03:28:35.738Z,81.86
2019-03-06T03:29:11.134Z,81.93
2019-03-06T03:29:46.863Z,81.97
2019-03-06T03:30:22.865Z,81.95
2019-03-06T03:30:58.236Z,81.88
2019-03-06T03:31:33.671Z,81.74
2019-03-06T03:32:09.094Z,81.69
2019-03-06T03:32:44.498Z,81.68
2019-03-06T03:33:19.886Z,81.71
2019-03-06T03:33:55.507Z,81.72
2019-03-06T03:34:30.896Z,81.75
2019-03-06T03:35:06.484Z,81.82
2019-03-06T03:35:43.330Z,81.85
2019-03-06T03:36:18.759Z,81.86
2019-03-06T03:36:54.140Z,81.84
2019-03-06T03:37:29.814Z,81.89
2019-03-06T03:38:05.489Z,81.98
2019-03-06T03:38:40.924Z,81.91
2019-03-06T03:39:16.422Z,81.87
2019-03-06T03:39:52.087Z,81.85
2019-03-06T03:40:27.472Z,81.87
2019-03-06T03:41:03.220Z,81.89
2019-03-06T03:41:38.763Z,81.92
2019-03-06T03:42:14.173Z,81.97
2019-03-06T03:42:49.953Z,82.05
2019-03-06T03:43:25.327Z,82.11
2019-03-06T03:44:01.088Z,82.14
2019-03-06T03:44:36.468Z,82.15
2019-03-06T03:45:12.450Z,82.08
2019-03-06T03:45:48.134Z,82.06
2019-03-06T03:46:23.531Z,82.07
2019-03-06T03:46:58.913Z,81.99
2019-03-06T03:47:34.297Z,81.91
2019-03-06T03:48:09.828Z,81.81
2019-03-06T03:48:45.215Z,81.71
2019-03-06T03:49:20.953Z,81.71
2019-03-06T03:49:56.331Z,81.51
2019-03-06T03:50:31.973Z,81.40
2019-03-06T03:51:07.632Z,81.33
2019-03-06T03:51:43.336Z,81.20
2019-03-06T03:52:19.358Z,81.10
2019-03-06T03:52:54.736Z,81.05
2019-03-06T03:53:30.156Z,80.96
2019-03-06T03:54:05.494Z,80.81
2019-03-06T03:54:40.892Z,80.41
2019-03-06T03:55:16.518Z,80.23
2019-03-06T03:55:51.910Z,80.25
2019-03-06T03:56:27.467Z,80.27
2019-03-06T03:57:03.088Z,80.27
2019-03-06T03:57:38.677Z,80.28
2019-03-06T03:58:14.126Z,80.24
2019-03-06T03:58:49.818Z,80.10
2019-03-06T03:59:25.210Z,79.99
2019-03-06T04:00:00.797Z,79.80
2019-03-06T04:00:36.193Z,79.67
2019-03-06T04:01:11.624Z,79.68
2019-03-06T04:01:47.089Z,79.68
2019-03-06T04:02:22.485Z,79.68
2019-03-06T04:02:58.138Z,79.66
2019-03-06T04:03:33.785Z,79.66
2019-03-06T04:04:09.213Z,79.44
2019-03-06T04:04:45.211Z,79.39
2019-03-06T04:05:21.191Z,79.43
2019-03-06T04:05:56.877Z,79.47
2019-03-06T04:06:32.275Z,79.59
2019-03-06T04:07:07.644Z,79.59
2019-03-06T04:07:43.075Z,79.71
2019-03-06T04:08:18.483Z,79.73
2019-03-06T04:08:54.329Z,79.74
2019-03-06T04:09:29.734Z,79.72
2019-03-06T04:10:06.357Z,79.77
2019-03-06T04:10:41.781Z,79.78
2019-03-06T04:11:17.431Z,79.79
2019-03-06T04:11:52.802Z,79.83
2019-03-06T04:12:28.185Z,79.90
2019-03-06T04:13:03.555Z,79.91
2019-03-06T04:13:38.977Z,79.89
2019-03-06T04:14:14.436Z,79.94
2019-03-06T04:14:50.071Z,79.97
2019-03-06T04:15:25.465Z,80.01
2019-03-06T04:16:01.203Z,80.06
2019-03-06T04:16:36.889Z,79.91
2019-03-06T04:17:12.317Z,79.91
2019-03-06T04:17:47.745Z,80.11
2019-03-06T04:18:23.124Z,80.11
2019-03-06T04:18:58.783Z,80.16
2019-03-06T04:19:34.728Z,80.21
2019-03-06T04:20:11.592Z,80.26
2019-03-06T04:20:47.269Z,80.21
2019-03-06T04:21:22.795Z,80.19
2019-03-06T04:21:58.493Z,80.26
2019-03-06T04:22:34.056Z,80.19
2019-03-06T04:23:09.451Z,80.18
2019-03-06T04:23:44.839Z,80.19
2019-03-06T04:24:20.251Z,80.18
2019-03-06T04:24:56.233Z,80.21
2019-03-06T04:25:31.662Z,80.25
2019-03-06T04:26:07.025Z,80.31
2019-03-06T04:26:42.453Z,80.37
2019-03-06T04:27:17.989Z,80.45
2019-03-06T04:27:53.599Z,80.47
2019-03-06T04:28:28.983Z,80.45
2019-03-06T04:29:04.641Z,80.45
2019-03-06T04:29:40.057Z,80.45
2019-03-06T04:30:15.669Z,80.46
2019-03-06T04:30:53.238Z,80.42
2019-03-06T04:31:28.712Z,80.45
2019-03-06T04:32:04.087Z,80.44
2019-03-06T04:32:39.507Z,80.48
2019-03-06T04:33:14.901Z,80.55
2019-03-06T04:33:50.646Z,80.24
2019-03-06T04:34:26.262Z,80.13
2019-03-06T04:35:02.077Z,80.22
2019-03-06T04:35:38.281Z,80.30
2019-03-06T04:36:13.762Z,80.37
2019-03-06T04:36:49.162Z,80.45
2019-03-06T04:37:24.619Z,80.59
2019-03-06T04:38:00.260Z,80.68
2019-03-06T04:38:35.627Z,80.81
2019-03-06T04:39:11.324Z,80.90
2019-03-06T04:39:47.051Z,80.99
2019-03-06T04:40:22.432Z,81.11
2019-03-06T04:40:57.857Z,81.16
2019-03-06T04:41:33.826Z,81.22
2019-03-06T04:42:10.133Z,81.30
2019-03-06T04:42:45.838Z,81.36
2019-03-06T04:43:21.487Z,81.40
2019-03-06T04:43:57.135Z,81.45
2019-03-06T04:44:32.516Z,81.48
2019-03-06T04:45:08.495Z,81.40
2019-03-06T04:45:44.324Z,81.40
2019-03-06T04:46:20.547Z,81.44
2019-03-06T04:46:55.983Z,81.44
2019-03-06T04:47:31.363Z,81.43
2019-03-06T04:48:07.038Z,81.40
2019-03-06T04:48:42.514Z,81.34
2019-03-06T04:49:18.183Z,81.32
2019-03-06T04:49:53.568Z,81.29
2019-03-06T04:50:28.969Z,81.36
2019-03-06T04:51:04.643Z,81.40
2019-03-06T04:51:40.077Z,81.39
2019-03-06T04:52:15.489Z,81.37
2019-03-06T04:52:50.973Z,81.37
2019-03-06T04:53:26.489Z,81.41
2019-03-06T04:54:02.106Z,81.32
2019-03-06T04:54:37.532Z,80.91
2019-03-06T04:55:13.070Z,80.71
2019-03-06T04:55:48.521Z,80.51
2019-03-06T04:56:24.161Z,80.34
2019-03-06T04:56:59.537Z,80.31
2019-03-06T04:57:35.422Z,80.38
2019-03-06T04:58:11.107Z,80.41
2019-03-06T04:58:46.845Z,80.46
2019-03-06T04:59:22.760Z,80.50
2019-03-06T04:59:58.420Z,80.56
2019-03-06T05:00:33.812Z,80.66
2019-03-06T05:01:09.447Z,80.78
2019-03-06T05:01:44.839Z,80.89
2019-03-06T05:02:20.243Z,80.96
2019-03-06T05:02:55.905Z,80.79
2019-03-06T05:03:31.275Z,80.79
2019-03-06T05:04:06.653Z,80.92
2019-03-06T05:04:42.428Z,80.91
2019-03-06T05:05:17.890Z,80.92
2019-03-06T05:05:53.521Z,80.95
2019-03-06T05:06:28.890Z,80.97
2019-03-06T05:07:04.856Z,81.00
2019-03-06T05:07:40.270Z,80.99
2019-03-06T05:08:15.950Z,80.99
2019-03-06T05:08:51.557Z,80.96
2019-03-06T05:09:26.957Z,80.90
2019-03-06T05:10:02.356Z,80.74
2019-03-06T05:10:37.818Z,80.63
2019-03-06T05:11:13.345Z,80.63
2019-03-06T05:11:49.084Z,80.69
2019-03-06T05:12:24.457Z,80.74
2019-03-06T05:12:59.827Z,80.85
2019-03-06T05:13:35.232Z,80.95
2019-03-06T05:14:10.723Z,81.02
2019-03-06T05:14:46.465Z,81.08
2019-03-06T05:15:22.150Z,81.08
2019-03-06T05:15:57.532Z,81.10
2019-03-06T05:16:55.816Z,81.08
2019-03-06T05:17:50.251Z,81.10
2019-03-06T05:18:35.678Z,81.14
2019-03-06T05:19:11.088Z,81.12
2019-03-06T05:19:46.605Z,80.96
2019-03-06T05:20:22.226Z,80.85
2019-03-06T05:20:57.900Z,80.80
2019-03-06T05:21:33.280Z,80.79
2019-03-06T05:22:08.763Z,80.69
2019-03-06T05:22:44.171Z,80.57
2019-03-06T05:23:19.657Z,80.57
2019-03-06T05:23:55.320Z,80.55
2019-03-06T05:24:30.966Z,80.51
2019-03-06T05:25:06.671Z,80.46
2019-03-06T05:25:42.108Z,80.35
2019-03-06T05:26:17.886Z,80.26
2019-03-06T05:26:53.351Z,80.17
2019-03-06T05:27:28.736Z,80.25
2019-03-06T05:28:04.106Z,80.25
2019-03-06T05:28:40.078Z,80.15
2019-03-06T05:29:15.988Z,80.22
2019-03-06T05:29:51.381Z,80.27
2019-03-06T05:30:27.855Z,80.26
2019-03-06T05:31:03.224Z,80.60
2019-03-06T05:31:38.891Z,80.60
2019-03-06T05:32:28.813Z,80.47
2019-03-06T05:33:04.290Z,80.48
2019-03-06T05:33:39.685Z,80.41
2019-03-06T05:34:15.415Z,80.41
2019-03-06T05:34:51.145Z,80.37
2019-03-06T05:35:56.137Z,80.55
2019-03-06T05:37:12.528Z,80.55
2019-03-06T05:38:02.958Z,80.56
2019-03-06T05:38:43.112Z,80.69
2019-03-06T05:39:18.533Z,80.75
2019-03-06T05:39:53.899Z,80.83
2019-03-06T05:40:29.711Z,80.86
2019-03-06T05:41:05.093Z,80.91
2019-03-06T05:41:41.169Z,80.91
2019-03-06T05:42:16.865Z,80.89
2019-03-06T05:42:52.248Z,81.00
2019-03-06T05:43:27.661Z,81.04
2019-03-06T05:44:03.053Z,81.06
2019-03-06T05:44:38.696Z,81.08
2019-03-06T05:45:15.753Z,81.11
2019-03-06T05:45:51.362Z,81.09
2019-03-06T05:46:27.031Z,81.12
2019-03-06T05:47:02.693Z,81.13
2019-03-06T05:47:38.076Z,81.13
2019-03-06T05:48:13.795Z,81.07
2019-03-06T05:48:49.225Z,81.02
2019-03-06T05:49:25.206Z,80.98
2019-03-06T05:50:00.597Z,80.91
2019-03-06T05:50:36.560Z,80.78
2019-03-06T05:51:12.163Z,80.71
2019-03-06T05:51:47.798Z,80.50
2019-03-06T05:52:23.164Z,80.42
2019-03-06T05:52:58.785Z,80.37
2019-03-06T05:53:34.694Z,80.36
2019-03-06T05:54:10.140Z,80.36
2019-03-06T05:54:45.603Z,80.37
2019-03-06T05:55:21.346Z,80.38
2019-03-06T05:55:56.730Z,80.46
2019-03-06T05:56:32.103Z,80.47
2019-03-06T05:57:07.831Z,80.53
2019-03-06T05:57:43.663Z,80.61
2019-03-06T05:58:19.065Z,80.69
2019-03-06T05:58:54.743Z,80.81
2019-03-06T05:59:30.452Z,80.86
2019-03-06T06:00:06.116Z,80.91
2019-03-06T06:00:41.583Z,80.97
2019-03-06T06:01:17.101Z,81.04
2019-03-06T06:01:53.092Z,81.16
2019-03-06T06:02:28.490Z,81.26
2019-03-06T06:03:04.063Z,81.23
2019-03-06T06:03:39.525Z,81.18
2019-03-06T06:04:15.282Z,81.13
2019-03-06T06:04:50.766Z,81.01
2019-03-06T06:05:26.199Z,80.97
2019-03-06T06:06:01.603Z,80.81
2019-03-06T06:06:37.270Z,80.74
2019-03-06T06:07:12.799Z,80.67
2019-03-06T06:07:48.192Z,80.55
2019-03-06T06:08:23.864Z,80.39
2019-03-06T06:08:59.561Z,80.27
2019-03-06T06:09:35.210Z,80.10
2019-03-06T06:10:11.211Z,80.01
2019-03-06T06:10:46.657Z,79.85
2019-03-06T06:11:22.289Z,79.71
2019-03-06T06:11:57.964Z,79.60
2019-03-06T06:12:33.764Z,79.54
2019-03-06T06:13:09.361Z,79.57
2019-03-06T06:13:45.141Z,79.56
2019-03-06T06:14:20.706Z,79.53
2019-03-06T06:14:56.345Z,79.54
2019-03-06T06:15:31.981Z,79.56
2019-03-06T06:16:07.703Z,79.65
2019-03-06T06:16:43.183Z,79.69
2019-03-06T06:17:18.906Z,79.74
2019-03-06T06:17:54.270Z,79.78
2019-03-06T06:18:29.908Z,79.91
2019-03-06T06:19:05.297Z,79.99
2019-03-06T06:19:40.808Z,80.04
2019-03-06T06:20:16.690Z,80.05
2019-03-06T06:21:02.031Z,80.12
2019-03-06T06:22:14.733Z,80.09
2019-03-06T06:23:12.154Z,79.92
2019-03-06T06:23:51.490Z,79.98
2019-03-06T06:24:29.229Z,80.15
2019-03-06T06:25:04.733Z,80.15
2019-03-06T06:25:40.439Z,79.85
2019-03-06T06:26:15.883Z,79.79
2019-03-06T06:26:51.282Z,79.85
2019-03-06T06:27:26.686Z,79.96
2019-03-06T06:28:02.390Z,79.96
2019-03-06T06:28:37.818Z,79.91
2019-03-06T06:29:13.678Z,79.89
2019-03-06T06:29:49.067Z,79.92
2019-03-06T06:30:24.760Z,79.97
2019-03-06T06:31:00.165Z,79.99
2019-03-06T06:31:36.128Z,79.79
2019-03-06T06:32:12.161Z,79.72
2019-03-06T06:32:47.855Z,79.75
2019-03-06T06:33:23.497Z,79.82
2019-03-06T06:33:58.881Z,79.80
2019-03-06T06:34:34.297Z,79.49
2019-03-06T06:35:09.913Z,79.36
2019-03-06T06:35:45.591Z,79.25
2019-03-06T06:36:20.976Z,79.19
2019-03-06T06:36:56.516Z,79.12
2019-03-06T06:37:32.174Z,79.08
2019-03-06T06:38:07.658Z,79.17
2019-03-06T06:38:43.093Z,79.32
2019-03-06T06:39:18.511Z,79.37
2019-03-06T06:39:53.926Z,79.42
2019-03-06T06:40:29.304Z,79.48
2019-03-06T06:41:04.691Z,79.27
2019-03-06T06:41:40.425Z,78.86
2019-03-06T06:42:16.102Z,78.55
2019-03-06T06:42:51.623Z,78.64
2019-03-06T06:43:26.987Z,78.80
2019-03-06T06:44:02.648Z,78.99
2019-03-06T06:44:38.326Z,79.01
2019-03-06T06:45:13.990Z,79.03
2019-03-06T06:45:49.706Z,79.12
2019-03-06T06:46:25.371Z,79.22
2019-03-06T06:47:00.756Z,79.34
2019-03-06T06:47:36.421Z,79.50
2019-03-06T06:48:17.114Z,79.46
2019-03-06T06:48:52.684Z,79.37
2019-03-06T06:49:28.140Z,79.42
2019-03-06T06:50:03.849Z,79.51
2019-03-06T06:50:41.216Z,79.62
2019-03-06T06:52:06.612Z,79.72
2019-03-06T06:53:29.654Z,79.72
2019-03-06T06:54:20.005Z,79.82
2019-03-06T06:55:35.833Z,79.79
2019-03-06T06:56:56.913Z,79.73
2019-03-06T06:58:00.155Z,79.63
2019-03-06T06:59:19.063Z,79.49
2019-03-06T07:00:29.702Z,79.50
2019-03-06T07:02:07.744Z,79.45
2019-03-06T07:03:52.123Z,79.26
2019-03-06T07:05:29.462Z,79.10
2019-03-06T07:06:16.982Z,79.21
2019-03-06T07:07:12.880Z,79.34
2019-03-06T07:08:16.167Z,79.12
2019-03-06T07:09:03.869Z,79.07
2019-03-06T07:09:50.815Z,79.12
2019-03-06T07:10:43.041Z,78.99
2019-03-06T07:11:37.246Z,78.85
2019-03-06T07:12:44.632Z,78.78
2019-03-06T07:13:25.869Z,78.48
2019-03-06T07:14:29.996Z,78.09
2019-03-06T07:15:31.627Z,77.99
2019-03-06T07:16:20.874Z,77.64
2019-03-06T07:17:18.058Z,76.92
2019-03-06T07:18:11.690Z,76.68
2019-03-06T07:19:15.230Z,76.72
2019-03-06T07:20:10.056Z,76.81
2019-03-06T07:21:19.830Z,76.78
2019-03-06T07:22:07.981Z,76.71
2019-03-06T07:22:54.299Z,76.67
2019-03-06T07:23:37.858Z,76.58
2019-03-06T07:24:35.326Z,76.34
2019-03-06T07:25:38.572Z,75.90
2019-03-06T07:26:39.297Z,75.50
2019-03-06T07:27:36.523Z,75.15
2019-03-06T07:28:34.292Z,75.15
2019-03-06T07:29:25.023Z,75.24
2019-03-06T07:30:24.747Z,74.92
2019-03-06T07:31:09.916Z,74.95
2019-03-06T07:31:56.223Z,74.89
2019-03-06T07:32:49.191Z,74.80
2019-03-06T07:33:55.653Z,74.43
2019-03-06T07:34:43.081Z,73.17
2019-03-06T07:36:29.894Z,72.98
2019-03-06T07:37:08.828Z,73.31
2019-03-06T07:37:53.892Z,73.40
2019-03-06T07:38:29.272Z,73.40
2019-03-06T07:39:29.460Z,73.39
2019-03-06T07:40:10.637Z,73.33
2019-03-06T07:41:03.810Z,73.29
2019-03-06T07:41:49.976Z,72.78
2019-03-06T07:42:43.343Z,72.68
2019-03-06T07:43:36.016Z,72.68
2019-03-06T07:44:42.436Z,72.22
2019-03-06T07:45:59.829Z,72.39
2019-03-06T07:46:54.387Z,71.90
2019-03-06T07:47:52.180Z,72.79
2019-03-06T07:48:38.752Z,72.16
2019-03-06T07:49:25.103Z,72.16
2019-03-06T07:50:31.729Z,71.00
2019-03-06T07:51:34.192Z,71.43
2019-03-06T07:52:26.413Z,71.02
2019-03-06T07:53:58.939Z,70.58
2019-03-06T07:54:53.291Z,70.58
2019-03-06T07:55:39.261Z,70.09
2019-03-06T07:56:27.927Z,69.07
2019-03-06T07:57:22.273Z,69.07
2019-03-06T07:58:34.048Z,67.73
2019-03-06T07:59:09.570Z,67.53
2019-03-06T07:59:45.254Z,68.18
2019-03-06T08:00:21.203Z,68.53
2019-03-06T08:00:56.635Z,68.53
2019-03-06T08:01:34.859Z,68.88
2019-03-06T08:02:12.821Z,68.97
2019-03-06T08:03:07.328Z,68.97
2019-03-06T08:03:50.382Z,68.56
2019-03-06T08:04:26.073Z,67.89
2019-03-06T08:05:01.725Z,67.85
2019-03-06T08:05:37.114Z,67.38
2019-03-06T08:06:12.589Z,67.38
2019-03-06T08:07:13.581Z,67.12
2019-03-06T08:07:48.976Z,67.73
2019-03-06T08:08:24.361Z,67.73
2019-03-06T08:09:00.023Z,67.61
2019-03-06T08:09:35.731Z,67.61
2019-03-06T08:10:14.364Z,68.01
2019-03-06T08:10:50.548Z,67.77
2019-03-06T08:11:34.319Z,67.80
2019-03-06T08:12:28.715Z,67.59
2019-03-06T08:13:12.924Z,66.22
2019-03-06T08:14:05.563Z,66.22
2019-03-06T08:14:52.400Z,66.59
2019-03-06T08:15:45.194Z,67.12
2019-03-06T08:16:35.368Z,67.12
2019-03-06T08:17:38.885Z,66.92
2019-03-06T08:18:32.022Z,65.16
2019-03-06T08:19:27.534Z,63.89
2019-03-06T08:20:16.235Z,64.09
2019-03-06T08:21:13.853Z,66.54
2019-03-06T08:22:05.825Z,66.54
2019-03-06T08:22:58.724Z,67.74